sensor_id;sensor_type;location;lat;lon;timestamp;pressure;altitude;pressure_sealevel;temperature;humidity
38400;BME280;24180;42.676;23.320;2023-03-15T00:00:11;93782.16;;;5.76;90.12
38400;BME280;24180;42.676;23.320;2023-03-15T00:02:37;93800.63;;;5.98;91.25
38400;BME280;24180;42.676;23.320;2023-03-15T00:05:03;93796.59;;;6.05;91.53
38400;BME280;24180;42.676;23.320;2023-03-15T00:07:28;93792.09;;;6.07;91.85
38400;BME280;24180;42.676;23.320;2023-03-15T00:09:54;93768.34;;;5.86;92.83
38400;BME280;24180;42.676;23.320;2023-03-15T00:12:20;93769.16;;;5.87;93.86
38400;BME280;24180;42.676;23.320;2023-03-15T00:14:49;93770.22;;;5.84;94.07
38400;BME280;24180;42.676;23.320;2023-03-15T00:17:15;93795.09;;;5.84;95.40
38400;BME280;24180;42.676;23.320;2023-03-15T00:19:41;93790.53;;;5.87;96.63
38400;BME280;24180;42.676;23.320;2023-03-15T00:22:06;93803.75;;;5.83;97.47
38400;BME280;24180;42.676;23.320;2023-03-15T00:24:32;93800.53;;;5.71;99.92
38400;BME280;24180;42.676;23.320;2023-03-15T00:26:57;93772.44;;;5.50;100.00
38400;BME280;24180;42.676;23.320;2023-03-15T00:29:23;93773.25;;;5.60;97.99
38400;BME280;24180;42.676;23.320;2023-03-15T00:31:48;93777.81;;;5.76;97.64
38400;BME280;24180;42.676;23.320;2023-03-15T00:34:16;93781.47;;;5.74;98.24
38400;BME280;24180;42.676;23.320;2023-03-15T00:36:43;93785.22;;;5.98;97.51
38400;BME280;24180;42.676;23.320;2023-03-15T00:39:09;93752.09;;;5.86;95.28
38400;BME280;24180;42.676;23.320;2023-03-15T00:41:34;93772.94;;;5.83;97.01
38400;BME280;24180;42.676;23.320;2023-03-15T00:44:00;93757.72;;;5.52;99.96
38400;BME280;24180;42.676;23.320;2023-03-15T00:46:25;93779.44;;;5.68;100.00
38400;BME280;24180;42.676;23.320;2023-03-15T00:48:51;93789.72;;;5.77;100.00
38400;BME280;24180;42.676;23.320;2023-03-15T00:51:19;93757.94;;;5.88;98.08
38400;BME280;24180;42.676;23.320;2023-03-15T00:53:46;93752.38;;;5.83;97.73
38400;BME280;24180;42.676;23.320;2023-03-15T00:56:17;93767.66;;;5.84;98.70
38400;BME280;24180;42.676;23.320;2023-03-15T00:58:43;93742.44;;;5.60;99.15
38400;BME280;24180;42.676;23.320;2023-03-15T01:01:13;93747.41;;;5.72;98.99
38400;BME280;24180;42.676;23.320;2023-03-15T01:03:40;93728.63;;;5.71;98.16
38400;BME280;24180;42.676;23.320;2023-03-15T01:06:08;93750.34;;;5.96;97.58
38400;BME280;24180;42.676;23.320;2023-03-15T01:08:34;93734.53;;;5.91;98.19
38400;BME280;24180;42.676;23.320;2023-03-15T01:11:04;93753.13;;;6.12;96.76
38400;BME280;24180;42.676;23.320;2023-03-15T01:13:30;93749.03;;;6.19;94.41
38400;BME280;24180;42.676;23.320;2023-03-15T01:15:56;93738.09;;;6.17;93.32
38400;BME280;24180;42.676;23.320;2023-03-15T01:18:21;93760.94;;;6.20;92.97
38400;BME280;24180;42.676;23.320;2023-03-15T01:20:46;93700.69;;;6.05;93.51
38400;BME280;24180;42.676;23.320;2023-03-15T01:23:12;93714.72;;;6.10;94.02
38400;BME280;24180;42.676;23.320;2023-03-15T01:25:37;93713.16;;;6.00;95.32
38400;BME280;24180;42.676;23.320;2023-03-15T01:28:03;93713.84;;;5.92;97.72
38400;BME280;24180;42.676;23.320;2023-03-15T01:30:28;93727.63;;;6.01;99.09
38400;BME280;24180;42.676;23.320;2023-03-15T01:32:54;93728.16;;;5.95;100.00
38400;BME280;24180;42.676;23.320;2023-03-15T01:35:19;93733.47;;;5.93;99.06
38400;BME280;24180;42.676;23.320;2023-03-15T01:37:44;93731.44;;;5.87;100.00
38400;BME280;24180;42.676;23.320;2023-03-15T01:40:13;93721.69;;;5.91;100.00
38400;BME280;24180;42.676;23.320;2023-03-15T01:51:09;93711.09;;;6.03;95.38
38400;BME280;24180;42.676;23.320;2023-03-15T01:53:37;93716.56;;;5.91;96.42
38400;BME280;24180;42.676;23.320;2023-03-15T01:56:04;93681.63;;;5.61;98.87
38400;BME280;24180;42.676;23.320;2023-03-15T01:58:30;93693.38;;;5.63;100.00
38400;BME280;24180;42.676;23.320;2023-03-15T02:00:58;93689.69;;;5.66;97.62
38400;BME280;24180;42.676;23.320;2023-03-15T02:03:34;93675.38;;;5.63;97.77
38400;BME280;24180;42.676;23.320;2023-03-15T02:06:03;93672.72;;;5.55;98.56
38400;BME280;24180;42.676;23.320;2023-03-15T02:08:32;93693.34;;;5.73;97.33
38400;BME280;24180;42.676;23.320;2023-03-15T02:11:03;93668.41;;;5.56;97.77
38400;BME280;24180;42.676;23.320;2023-03-15T02:13:29;93653.00;;;5.46;98.94
38400;BME280;24180;42.676;23.320;2023-03-15T02:15:55;93678.91;;;5.62;100.00
38400;BME280;24180;42.676;23.320;2023-03-15T02:18:21;93657.06;;;5.49;99.73
38400;BME280;24180;42.676;23.320;2023-03-15T02:23:20;93657.31;;;5.55;100.00
38400;BME280;24180;42.676;23.320;2023-03-15T02:28:38;93658.94;;;5.56;100.00
38400;BME280;24180;42.676;23.320;2023-03-15T02:31:05;93665.94;;;5.64;100.00
38400;BME280;24180;42.676;23.320;2023-03-15T02:33:45;93668.22;;;5.67;100.00
38400;BME280;24180;42.676;23.320;2023-03-15T02:38:46;93647.31;;;5.52;95.51
38400;BME280;24180;42.676;23.320;2023-03-15T02:41:15;93663.66;;;5.61;93.16
38400;BME280;24180;42.676;23.320;2023-03-15T02:43:42;93675.69;;;5.60;93.69
38400;BME280;24180;42.676;23.320;2023-03-15T02:46:08;93637.66;;;5.37;95.37
38400;BME280;24180;42.676;23.320;2023-03-15T02:48:34;93653.47;;;5.32;97.35
38400;BME280;24180;42.676;23.320;2023-03-15T02:51:00;93667.22;;;5.41;97.83
38400;BME280;24180;42.676;23.320;2023-03-15T02:53:28;93661.94;;;5.42;96.13
38400;BME280;24180;42.676;23.320;2023-03-15T02:55:54;93645.66;;;5.24;97.22
38400;BME280;24180;42.676;23.320;2023-03-15T02:58:20;93652.66;;;5.22;97.67
38400;BME280;24180;42.676;23.320;2023-03-15T03:00:45;93634.91;;;5.01;96.61
38400;BME280;24180;42.676;23.320;2023-03-15T03:03:10;93651.47;;;5.07;95.14
38400;BME280;24180;42.676;23.320;2023-03-15T03:05:36;93622.34;;;4.89;96.61
38400;BME280;24180;42.676;23.320;2023-03-15T03:08:01;93653.38;;;5.05;96.68
38400;BME280;24180;42.676;23.320;2023-03-15T03:10:27;93618.97;;;4.88;97.28
38400;BME280;24180;42.676;23.320;2023-03-15T03:12:53;93616.13;;;4.82;99.25
38400;BME280;24180;42.676;23.320;2023-03-15T03:15:19;93637.34;;;4.93;97.88
38400;BME280;24180;42.676;23.320;2023-03-15T03:17:45;93629.06;;;4.99;97.10
38400;BME280;24180;42.676;23.320;2023-03-15T03:20:11;93606.69;;;4.82;97.94
38400;BME280;24180;42.676;23.320;2023-03-15T03:22:38;93632.59;;;4.98;97.96
38400;BME280;24180;42.676;23.320;2023-03-15T03:25:06;93626.09;;;5.04;97.58
38400;BME280;24180;42.676;23.320;2023-03-15T03:27:33;93627.72;;;5.05;96.32
38400;BME280;24180;42.676;23.320;2023-03-15T03:30:03;93618.13;;;5.07;96.46
38400;BME280;24180;42.676;23.320;2023-03-15T03:32:28;93616.63;;;5.14;93.84
38400;BME280;24180;42.676;23.320;2023-03-15T03:34:54;93621.22;;;5.10;94.08
38400;BME280;24180;42.676;23.320;2023-03-15T03:37:20;93600.69;;;5.10;96.00
38400;BME280;24180;42.676;23.320;2023-03-15T03:39:45;93603.25;;;5.20;96.47
38400;BME280;24180;42.676;23.320;2023-03-15T03:42:11;93604.00;;;5.30;97.25
38400;BME280;24180;42.676;23.320;2023-03-15T03:44:36;93583.72;;;5.09;96.01
38400;BME280;24180;42.676;23.320;2023-03-15T03:47:02;93598.34;;;5.27;93.47
38400;BME280;24180;42.676;23.320;2023-03-15T03:49:28;93577.38;;;5.04;91.33
38400;BME280;24180;42.676;23.320;2023-03-15T03:51:54;93575.69;;;5.22;94.57
38400;BME280;24180;42.676;23.320;2023-03-15T03:54:19;93575.25;;;5.27;95.72
38400;BME280;24180;42.676;23.320;2023-03-15T03:56:46;93600.63;;;5.39;95.91
38400;BME280;24180;42.676;23.320;2023-03-15T03:59:11;93572.63;;;5.09;99.21
38400;BME280;24180;42.676;23.320;2023-03-15T04:01:37;93599.06;;;5.19;100.00
38400;BME280;24180;42.676;23.320;2023-03-15T04:04:02;93591.88;;;5.23;100.00
38400;BME280;24180;42.676;23.320;2023-03-15T04:06:28;93572.22;;;5.13;100.00
38400;BME280;24180;42.676;23.320;2023-03-15T04:08:53;93584.06;;;5.24;100.00
38400;BME280;24180;42.676;23.320;2023-03-15T04:11:18;93582.03;;;5.28;99.77
38400;BME280;24180;42.676;23.320;2023-03-15T04:13:44;93576.88;;;5.28;97.53
38400;BME280;24180;42.676;23.320;2023-03-15T04:16:09;93585.09;;;5.31;94.84
38400;BME280;24180;42.676;23.320;2023-03-15T04:18:35;93588.72;;;5.38;92.70
38400;BME280;24180;42.676;23.320;2023-03-15T04:21:00;93586.44;;;5.35;91.38
38400;BME280;24180;42.676;23.320;2023-03-15T04:23:26;93588.47;;;5.41;90.41
38400;BME280;24180;42.676;23.320;2023-03-15T04:25:52;93537.47;;;5.19;87.23
38400;BME280;24180;42.676;23.320;2023-03-15T04:28:19;93567.63;;;5.44;88.62
38400;BME280;24180;42.676;23.320;2023-03-15T04:30:48;93584.66;;;5.45;87.79
38400;BME280;24180;42.676;23.320;2023-03-15T04:33:14;93549.13;;;5.13;88.67
38400;BME280;24180;42.676;23.320;2023-03-15T04:35:40;93577.00;;;5.26;89.31
38400;BME280;24180;42.676;23.320;2023-03-15T04:38:07;93568.66;;;5.24;90.85
38400;BME280;24180;42.676;23.320;2023-03-15T04:40:33;93584.72;;;5.26;88.79
38400;BME280;24180;42.676;23.320;2023-03-15T04:43:03;93560.34;;;5.12;85.65
38400;BME280;24180;42.676;23.320;2023-03-15T04:45:30;93559.38;;;5.13;86.54
38400;BME280;24180;42.676;23.320;2023-03-15T04:47:56;93567.75;;;5.15;86.19
38400;BME280;24180;42.676;23.320;2023-03-15T04:50:22;93564.78;;;5.10;85.78
38400;BME280;24180;42.676;23.320;2023-03-15T04:52:48;93587.28;;;5.26;85.42
38400;BME280;24180;42.676;23.320;2023-03-15T04:55:14;93589.59;;;5.29;85.06
38400;BME280;24180;42.676;23.320;2023-03-15T04:57:39;93579.31;;;5.29;85.05
38400;BME280;24180;42.676;23.320;2023-03-15T05:00:05;93577.97;;;5.25;85.10
38400;BME280;24180;42.676;23.320;2023-03-15T05:02:35;93575.25;;;5.27;85.45
38400;BME280;24180;42.676;23.320;2023-03-15T05:05:05;93554.25;;;5.13;86.32
38400;BME280;24180;42.676;23.320;2023-03-15T05:07:32;93579.88;;;5.23;86.33
38400;BME280;24180;42.676;23.320;2023-03-15T05:09:58;93576.34;;;5.24;85.84
38400;BME280;24180;42.676;23.320;2023-03-15T05:12:23;93582.03;;;5.28;88.02
38400;BME280;24180;42.676;23.320;2023-03-15T05:14:49;93566.16;;;5.05;89.05
38400;BME280;24180;42.676;23.320;2023-03-15T05:17:14;93552.53;;;4.95;89.17
38400;BME280;24180;42.676;23.320;2023-03-15T05:19:40;93546.72;;;5.02;88.85
38400;BME280;24180;42.676;23.320;2023-03-15T05:22:06;93576.59;;;5.31;89.00
38400;BME280;24180;42.676;23.320;2023-03-15T05:24:32;93581.81;;;5.48;89.11
38400;BME280;24180;42.676;23.320;2023-03-15T05:26:57;93580.56;;;5.52;88.77
38400;BME280;24180;42.676;23.320;2023-03-15T05:29:23;93579.44;;;5.64;87.38
38400;BME280;24180;42.676;23.320;2023-03-15T05:31:48;93582.53;;;5.68;85.62
38400;BME280;24180;42.676;23.320;2023-03-15T05:34:14;93517.38;;;5.42;86.30
38400;BME280;24180;42.676;23.320;2023-03-15T05:36:40;93543.72;;;5.71;85.95
38400;BME280;24180;42.676;23.320;2023-03-15T05:39:08;93542.44;;;5.57;86.44
38400;BME280;24180;42.676;23.320;2023-03-15T05:41:34;93572.78;;;5.72;89.09
38400;BME280;24180;42.676;23.320;2023-03-15T05:43:59;93570.34;;;5.70;89.92
38400;BME280;24180;42.676;23.320;2023-03-15T05:46:25;93572.34;;;5.76;90.22
38400;BME280;24180;42.676;23.320;2023-03-15T05:48:50;93558.47;;;5.69;90.92
38400;BME280;24180;42.676;23.320;2023-03-15T05:51:16;93534.53;;;5.69;91.52
38400;BME280;24180;42.676;23.320;2023-03-15T05:53:41;93557.34;;;5.99;91.27
38400;BME280;24180;42.676;23.320;2023-03-15T05:56:07;93554.66;;;6.00;90.91
38400;BME280;24180;42.676;23.320;2023-03-15T05:58:33;93533.91;;;5.84;91.24
38400;BME280;24180;42.676;23.320;2023-03-15T06:00:58;93556.50;;;6.08;92.15
38400;BME280;24180;42.676;23.320;2023-03-15T06:03:26;93561.13;;;6.22;92.64
38400;BME280;24180;42.676;23.320;2023-03-15T06:05:52;93558.31;;;6.51;89.00
38400;BME280;24180;42.676;23.320;2023-03-15T06:08:17;93554.50;;;6.55;82.82
38400;BME280;24180;42.676;23.320;2023-03-15T06:10:42;93526.28;;;6.63;82.07
38400;BME280;24180;42.676;23.320;2023-03-15T06:13:08;93535.91;;;6.61;77.24
38400;BME280;24180;42.676;23.320;2023-03-15T06:15:33;93548.19;;;6.93;78.41
38400;BME280;24180;42.676;23.320;2023-03-15T06:17:59;93535.16;;;6.94;76.67
38400;BME280;24180;42.676;23.320;2023-03-15T06:20:24;93546.81;;;7.06;75.58
38400;BME280;24180;42.676;23.320;2023-03-15T06:22:50;93562.03;;;7.18;74.93
38400;BME280;24180;42.676;23.320;2023-03-15T06:25:15;93564.88;;;7.15;75.44
38400;BME280;24180;42.676;23.320;2023-03-15T06:27:40;93545.38;;;7.04;74.71
38400;BME280;24180;42.676;23.320;2023-03-15T06:30:07;93550.31;;;7.23;74.79
38400;BME280;24180;42.676;23.320;2023-03-15T06:32:33;93533.03;;;7.41;72.58
38400;BME280;24180;42.676;23.320;2023-03-15T06:34:58;93548.88;;;7.63;72.75
38400;BME280;24180;42.676;23.320;2023-03-15T06:37:23;93517.97;;;7.63;70.98
38400;BME280;24180;42.676;23.320;2023-03-15T06:39:49;93552.53;;;7.86;68.11
38400;BME280;24180;42.676;23.320;2023-03-15T06:42:16;93557.69;;;7.94;67.28
38400;BME280;24180;42.676;23.320;2023-03-15T06:44:41;93564.97;;;8.07;66.50
38400;BME280;24180;42.676;23.320;2023-03-15T06:47:09;93549.84;;;8.20;65.94
38400;BME280;24180;42.676;23.320;2023-03-15T06:49:35;93543.94;;;8.35;66.12
38400;BME280;24180;42.676;23.320;2023-03-15T06:52:00;93535.09;;;8.30;65.64
38400;BME280;24180;42.676;23.320;2023-03-15T06:54:25;93507.13;;;8.01;65.37
38400;BME280;24180;42.676;23.320;2023-03-15T06:56:51;93541.00;;;8.22;65.86
38400;BME280;24180;42.676;23.320;2023-03-15T06:59:16;93528.09;;;8.14;65.06
38400;BME280;24180;42.676;23.320;2023-03-15T07:01:42;93540.84;;;8.24;65.54
38400;BME280;24180;42.676;23.320;2023-03-15T07:04:07;93542.75;;;8.06;64.07
38400;BME280;24180;42.676;23.320;2023-03-15T07:06:34;93517.09;;;7.96;65.77
38400;BME280;24180;42.676;23.320;2023-03-15T07:09:00;93545.50;;;8.20;65.65
38400;BME280;24180;42.676;23.320;2023-03-15T07:11:26;93531.00;;;8.27;65.23
38400;BME280;24180;42.676;23.320;2023-03-15T07:13:51;93530.91;;;8.45;65.02
38400;BME280;24180;42.676;23.320;2023-03-15T07:16:16;93513.66;;;8.45;64.53
38400;BME280;24180;42.676;23.320;2023-03-15T07:18:42;93510.09;;;8.63;63.92
38400;BME280;24180;42.676;23.320;2023-03-15T07:21:07;93525.88;;;9.00;63.34
38400;BME280;24180;42.676;23.320;2023-03-15T07:23:33;93521.16;;;9.12;63.15
38400;BME280;24180;42.676;23.320;2023-03-15T07:25:58;93527.28;;;9.19;61.91
38400;BME280;24180;42.676;23.320;2023-03-15T07:28:25;93521.09;;;9.36;60.48
38400;BME280;24180;42.676;23.320;2023-03-15T07:31:02;93543.53;;;9.44;60.71
38400;BME280;24180;42.676;23.320;2023-03-15T07:33:29;93540.81;;;9.37;59.39
38400;BME280;24180;42.676;23.320;2023-03-15T07:35:55;93529.97;;;9.42;60.45
38400;BME280;24180;42.676;23.320;2023-03-15T07:38:23;93514.50;;;9.33;59.75
38400;BME280;24180;42.676;23.320;2023-03-15T07:40:49;93518.31;;;9.54;58.85
38400;BME280;24180;42.676;23.320;2023-03-15T07:43:14;93513.72;;;9.72;58.27
38400;BME280;24180;42.676;23.320;2023-03-15T07:45:40;93506.91;;;9.71;57.61
38400;BME280;24180;42.676;23.320;2023-03-15T07:48:06;93509.13;;;9.90;57.42
38400;BME280;24180;42.676;23.320;2023-03-15T07:50:31;93526.16;;;9.99;57.95
38400;BME280;24180;42.676;23.320;2023-03-15T07:52:57;93500.00;;;10.02;57.87
38400;BME280;24180;42.676;23.320;2023-03-15T07:55:22;93520.22;;;10.29;57.30
38400;BME280;24180;42.676;23.320;2023-03-15T07:57:49;93520.63;;;10.18;56.85
38400;BME280;24180;42.676;23.320;2023-03-15T08:00:15;93518.31;;;10.23;57.17
38400;BME280;24180;42.676;23.320;2023-03-15T08:02:41;93521.25;;;10.43;57.06
38400;BME280;24180;42.676;23.320;2023-03-15T08:05:07;93517.06;;;10.42;56.03
38400;BME280;24180;42.676;23.320;2023-03-15T08:07:32;93513.50;;;10.66;56.24
38400;BME280;24180;42.676;23.320;2023-03-15T08:09:58;93504.22;;;10.71;55.07
38400;BME280;24180;42.676;23.320;2023-03-15T08:12:24;93530.97;;;10.87;54.69
38400;BME280;24180;42.676;23.320;2023-03-15T08:14:49;93511.97;;;11.09;54.30
38400;BME280;24180;42.676;23.320;2023-03-15T08:17:16;93506.19;;;11.21;53.74
38400;BME280;24180;42.676;23.320;2023-03-15T08:19:41;93483.75;;;11.28;53.57
38400;BME280;24180;42.676;23.320;2023-03-15T08:22:07;93494.13;;;11.58;51.84
38400;BME280;24180;42.676;23.320;2023-03-15T08:24:32;93497.59;;;11.80;51.47
38400;BME280;24180;42.676;23.320;2023-03-15T08:26:58;93500.84;;;11.82;51.27
38400;BME280;24180;42.676;23.320;2023-03-15T08:29:23;93500.13;;;11.73;50.75
38400;BME280;24180;42.676;23.320;2023-03-15T08:31:49;93497.06;;;11.69;50.99
38400;BME280;24180;42.676;23.320;2023-03-15T08:34:14;93461.94;;;10.79;51.04
38400;BME280;24180;42.676;23.320;2023-03-15T08:36:40;93477.28;;;10.80;52.62
38400;BME280;24180;42.676;23.320;2023-03-15T08:39:06;93498.78;;;11.18;52.77
38400;BME280;24180;42.676;23.320;2023-03-15T08:41:33;93496.34;;;11.32;53.27
38400;BME280;24180;42.676;23.320;2023-03-15T08:43:58;93473.56;;;11.42;51.82
38400;BME280;24180;42.676;23.320;2023-03-15T08:46:25;93476.53;;;11.39;51.29
38400;BME280;24180;42.676;23.320;2023-03-15T08:48:51;93482.50;;;11.83;51.41
38400;BME280;24180;42.676;23.320;2023-03-15T08:51:16;93478.13;;;12.19;50.38
38400;BME280;24180;42.676;23.320;2023-03-15T08:53:43;93486.22;;;12.31;49.54
38400;BME280;24180;42.676;23.320;2023-03-15T08:56:08;93481.38;;;11.92;50.17
38400;BME280;24180;42.676;23.320;2023-03-15T08:58:33;93468.28;;;11.50;51.01
38400;BME280;24180;42.676;23.320;2023-03-15T09:01:00;93485.16;;;11.60;51.83
38400;BME280;24180;42.676;23.320;2023-03-15T09:03:25;93494.72;;;11.89;51.93
38400;BME280;24180;42.676;23.320;2023-03-15T09:05:55;93448.44;;;11.71;51.76
38400;BME280;24180;42.676;23.320;2023-03-15T09:08:20;93488.25;;;12.36;51.31
38400;BME280;24180;42.676;23.320;2023-03-15T09:10:46;93497.78;;;12.50;50.16
38400;BME280;24180;42.676;23.320;2023-03-15T09:13:11;93478.06;;;12.34;50.64
38400;BME280;24180;42.676;23.320;2023-03-15T09:15:37;93476.38;;;12.27;50.74
38400;BME280;24180;42.676;23.320;2023-03-15T09:18:02;93484.38;;;12.46;50.57
38400;BME280;24180;42.676;23.320;2023-03-15T09:20:27;93487.66;;;12.55;51.07
38400;BME280;24180;42.676;23.320;2023-03-15T09:22:55;93486.28;;;12.38;50.72
38400;BME280;24180;42.676;23.320;2023-03-15T09:25:22;93490.66;;;12.37;50.48
38400;BME280;24180;42.676;23.320;2023-03-15T09:27:48;93442.09;;;12.10;50.81
38400;BME280;24180;42.676;23.320;2023-03-15T09:30:15;93451.41;;;12.26;50.12
38400;BME280;24180;42.676;23.320;2023-03-15T09:32:40;93490.53;;;12.66;50.12
38400;BME280;24180;42.676;23.320;2023-03-15T09:35:10;93467.47;;;12.78;49.68
38400;BME280;24180;42.676;23.320;2023-03-15T09:37:37;93484.69;;;13.35;49.64
38400;BME280;24180;42.676;23.320;2023-03-15T09:40:02;93468.78;;;13.57;48.59
38400;BME280;24180;42.676;23.320;2023-03-15T09:45:11;93459.63;;;13.68;46.29
38400;BME280;24180;42.676;23.320;2023-03-15T09:47:58;93456.25;;;13.68;47.07
38400;BME280;24180;42.676;23.320;2023-03-15T09:50:28;93463.44;;;13.72;46.85
38400;BME280;24180;42.676;23.320;2023-03-15T09:55:27;93427.06;;;13.31;47.18
38400;BME280;24180;42.676;23.320;2023-03-15T09:57:59;93449.13;;;13.48;47.36
38400;BME280;24180;42.676;23.320;2023-03-15T10:00:35;93455.53;;;13.46;47.63
38400;BME280;24180;42.676;23.320;2023-03-15T10:03:02;93448.47;;;13.33;47.99
38400;BME280;24180;42.676;23.320;2023-03-15T10:05:38;93460.59;;;13.20;47.56
38400;BME280;24180;42.676;23.320;2023-03-15T10:08:12;93470.44;;;13.03;48.03
38400;BME280;24180;42.676;23.320;2023-03-15T10:10:46;93472.91;;;12.83;48.90
38400;BME280;24180;42.676;23.320;2023-03-15T10:18:29;93462.28;;;13.34;47.93
38400;BME280;24180;42.676;23.320;2023-03-15T10:21:05;93428.00;;;13.58;47.31
38400;BME280;24180;42.676;23.320;2023-03-15T10:23:46;93445.50;;;13.84;45.82
38400;BME280;24180;42.676;23.320;2023-03-15T10:26:18;93446.97;;;13.99;45.56
38400;BME280;24180;42.676;23.320;2023-03-15T10:28:45;93447.72;;;13.93;45.83
38400;BME280;24180;42.676;23.320;2023-03-15T10:31:14;93435.19;;;13.56;46.12
38400;BME280;24180;42.676;23.320;2023-03-15T10:33:40;93419.13;;;13.39;46.75
38400;BME280;24180;42.676;23.320;2023-03-15T10:36:16;93431.56;;;13.50;46.38
38400;BME280;24180;42.676;23.320;2023-03-15T10:38:43;93430.75;;;13.43;46.33
38400;BME280;24180;42.676;23.320;2023-03-15T10:41:11;93456.19;;;13.20;47.21
38400;BME280;24180;42.676;23.320;2023-03-15T10:43:38;93461.34;;;12.92;47.81
38400;BME280;24180;42.676;23.320;2023-03-15T10:46:10;93437.91;;;12.79;48.27
38400;BME280;24180;42.676;23.320;2023-03-15T10:48:38;93451.97;;;12.91;48.28
38400;BME280;24180;42.676;23.320;2023-03-15T10:53:59;93448.75;;;12.89;47.81
38400;BME280;24180;42.676;23.320;2023-03-15T10:56:28;93449.13;;;12.86;48.30
38400;BME280;24180;42.676;23.320;2023-03-15T10:58:56;93440.25;;;12.74;48.63
38400;BME280;24180;42.676;23.320;2023-03-15T11:01:30;93457.47;;;12.33;48.41
38400;BME280;24180;42.676;23.320;2023-03-15T11:06:48;93448.94;;;12.17;49.97
38400;BME280;24180;42.676;23.320;2023-03-15T11:09:16;93438.31;;;12.34;50.43
38400;BME280;24180;42.676;23.320;2023-03-15T11:12:04;93436.31;;;12.36;50.57
38400;BME280;24180;42.676;23.320;2023-03-15T11:14:43;93440.41;;;12.45;50.02
38400;BME280;24180;42.676;23.320;2023-03-15T11:17:21;93413.84;;;12.22;49.80
38400;BME280;24180;42.676;23.320;2023-03-15T11:19:56;93434.09;;;12.54;50.40
38400;BME280;24180;42.676;23.320;2023-03-15T11:22:23;93427.78;;;12.63;49.78
38400;BME280;24180;42.676;23.320;2023-03-15T11:24:50;93440.81;;;12.70;49.71
38400;BME280;24180;42.676;23.320;2023-03-15T11:27:18;93410.84;;;12.67;49.34
38400;BME280;24180;42.676;23.320;2023-03-15T11:29:48;93447.88;;;12.76;49.38
38400;BME280;24180;42.676;23.320;2023-03-15T11:32:27;93443.59;;;12.68;49.31
38400;BME280;24180;42.676;23.320;2023-03-15T11:35:05;93443.25;;;12.50;49.36
38400;BME280;24180;42.676;23.320;2023-03-15T11:38:01;93402.34;;;12.31;49.76
38400;BME280;24180;42.676;23.320;2023-03-15T11:40:33;93358.44;;;11.87;50.02
38400;BME280;24180;42.676;23.320;2023-03-15T11:48:20;93406.13;;;11.71;52.76
38400;BME280;24180;42.676;23.320;2023-03-15T11:50:53;93401.06;;;11.48;55.37
38400;BME280;24180;42.676;23.320;2023-03-15T11:53:20;93428.53;;;11.43;58.39
38400;BME280;24180;42.676;23.320;2023-03-15T11:55:49;93422.72;;;11.41;58.77
38400;BME280;24180;42.676;23.320;2023-03-15T11:58:34;93423.41;;;11.49;59.03
38400;BME280;24180;42.676;23.320;2023-03-15T12:01:09;93403.66;;;11.99;58.20
38400;BME280;24180;42.676;23.320;2023-03-15T12:03:42;93403.78;;;12.12;57.63
38400;BME280;24180;42.676;23.320;2023-03-15T12:08:48;93426.09;;;11.56;61.30
38400;BME280;24180;42.676;23.320;2023-03-15T12:16:22;93394.81;;;11.93;62.32
38400;BME280;24180;42.676;23.320;2023-03-15T12:18:48;93377.09;;;11.61;63.84
38400;BME280;24180;42.676;23.320;2023-03-15T12:21:17;93385.66;;;11.76;65.02
38400;BME280;24180;42.676;23.320;2023-03-15T12:23:57;93391.72;;;11.68;64.49
38400;BME280;24180;42.676;23.320;2023-03-15T12:26:39;93403.59;;;11.42;64.26
38400;BME280;24180;42.676;23.320;2023-03-15T12:29:15;93384.69;;;11.26;66.74
38400;BME280;24180;42.676;23.320;2023-03-15T12:31:49;93401.38;;;11.39;69.14
38400;BME280;24180;42.676;23.320;2023-03-15T12:34:35;93369.03;;;11.20;70.83
38400;BME280;24180;42.676;23.320;2023-03-15T12:37:06;93365.50;;;11.06;71.63
38400;BME280;24180;42.676;23.320;2023-03-15T12:42:05;93385.66;;;10.96;76.59
38400;BME280;24180;42.676;23.320;2023-03-15T12:47:01;93384.63;;;10.91;80.18
38400;BME280;24180;42.676;23.320;2023-03-15T12:49:30;93383.25;;;10.80;83.41
38400;BME280;24180;42.676;23.320;2023-03-15T12:54:25;93364.50;;;10.63;78.55
38400;BME280;24180;42.676;23.320;2023-03-15T12:57:02;93364.59;;;10.70;74.81
38400;BME280;24180;42.676;23.320;2023-03-15T13:01:59;93367.81;;;10.72;74.81
38400;BME280;24180;42.676;23.320;2023-03-15T13:04:27;93383.88;;;11.11;73.38
38400;BME280;24180;42.676;23.320;2023-03-15T13:07:00;93359.50;;;11.06;72.00
38400;BME280;24180;42.676;23.320;2023-03-15T13:09:48;93374.47;;;11.25;70.39
38400;BME280;24180;42.676;23.320;2023-03-15T13:12:25;93374.22;;;11.20;70.77
38400;BME280;24180;42.676;23.320;2023-03-15T13:17:47;93376.81;;;11.56;68.62
38400;BME280;24180;42.676;23.320;2023-03-15T13:20:41;93372.59;;;11.69;66.36
38400;BME280;24180;42.676;23.320;2023-03-15T13:23:28;93349.88;;;11.86;64.84
38400;BME280;24180;42.676;23.320;2023-03-15T13:28:46;93377.41;;;11.87;62.61
38400;BME280;24180;42.676;23.320;2023-03-15T13:33:46;93373.47;;;12.40;61.21
38400;BME280;24180;42.676;23.320;2023-03-15T13:36:17;93383.41;;;12.58;61.51
38400;BME280;24180;42.676;23.320;2023-03-15T13:38:54;93391.19;;;12.58;58.57
38400;BME280;24180;42.676;23.320;2023-03-15T13:41:27;93359.09;;;12.38;59.03
38400;BME280;24180;42.676;23.320;2023-03-15T13:43:56;93358.19;;;12.52;59.95
38400;BME280;24180;42.676;23.320;2023-03-15T13:46:24;93368.13;;;12.76;57.31
38400;BME280;24180;42.676;23.320;2023-03-15T13:48:52;93391.72;;;12.75;56.55
38400;BME280;24180;42.676;23.320;2023-03-15T13:51:32;93382.22;;;12.60;56.95
38400;BME280;24180;42.676;23.320;2023-03-15T13:54:28;93388.59;;;12.86;56.58
38400;BME280;24180;42.676;23.320;2023-03-15T13:59:31;93390.53;;;12.77;56.06
38400;BME280;24180;42.676;23.320;2023-03-15T14:01:57;93393.75;;;12.51;59.02
38400;BME280;24180;42.676;23.320;2023-03-15T14:04:24;93400.63;;;12.16;61.75